RRR1760 EGNT-ESGG
Flight info
| Callsign | RRR1760 |
|---|---|
| Flight time | 1h 6m |
| Altitude | 39000 |
| Route | DIGBI P15 GIVEM DCT VAXIT Z716 AAL N607 KUVUS DCT MAKUR |
| Aircraft | A20N/M-SDE2E3FGHIRWXY/LB1 |
Departure
| Time | 2026-05-05 17:40 |
|---|---|
| Airport | Newcastle International Airport (EGNT) |
Arrival
| Time | 2026-05-05 18:46 |
|---|---|
| Airport | Göteborg Landvetter Airport (ESGG) |
| Time | Latitude | Longitude | Altitude | Speed | Heading |
|---|---|---|---|---|---|
| 2026-05-05 17:28 | 55.03883 | -1.70216 | 267 ft | 0 kts | 94° |
| 2026-05-05 17:34 | 55.03884 | -1.70241 | 267 ft | 4 kts | 94° |
| 2026-05-05 17:34 | 55.03886 | -1.70286 | 267 ft | 4 kts | 94° |
| 2026-05-05 17:34 | 55.03890 | -1.70333 | 267 ft | 4 kts | 108° |
| 2026-05-05 17:34 | 55.03902 | -1.70373 | 267 ft | 4 kts | 145° |
| 2026-05-05 17:35 | 55.03917 | -1.70383 | 267 ft | 1 kts | 184° |
| 2026-05-05 17:35 | 55.03920 | -1.70383 | 267 ft | 0 kts | 184° |
| 2026-05-05 17:37 | 55.03917 | -1.70383 | 267 ft | 3 kts | 184° |
| 2026-05-05 17:38 | 55.03855 | -1.70391 | 267 ft | 16 kts | 184° |
| 2026-05-05 17:38 | 55.03708 | -1.70433 | 267 ft | 26 kts | 185° |
| 2026-05-05 17:38 | 55.03599 | -1.70512 | 267 ft | 9 kts | 256° |
| 2026-05-05 17:38 | 55.03541 | -1.70640 | 267 ft | 17 kts | 189° |
| 2026-05-05 17:39 | 55.03462 | -1.70645 | 267 ft | 0 kts | 181° |
| 2026-05-05 17:39 | 55.03457 | -1.70646 | 267 ft | 4 kts | 181° |
| 2026-05-05 17:39 | 55.03398 | -1.70584 | 267 ft | 17 kts | 122° |
| 2026-05-05 17:40 | 55.03437 | -1.70317 | 265 ft | 48 kts | 64° |
| 2026-05-05 17:40 | 55.03742 | -1.69177 | 291 ft | 150 kts | 64° |
| 2026-05-05 17:40 | 55.04266 | -1.67323 | 904 ft | 188 kts | 60° |
| 2026-05-05 17:40 | 55.04912 | -1.65173 | 2190 ft | 207 kts | 60° |
| 2026-05-05 17:41 | 55.05602 | -1.62859 | 3581 ft | 223 kts | 60° |
| 2026-05-05 17:41 | 55.06349 | -1.60324 | 4663 ft | 245 kts | 60° |
| 2026-05-05 17:41 | 55.07143 | -1.57580 | 5856 ft | 261 kts | 60° |
| 2026-05-05 17:41 | 55.07979 | -1.54654 | 7082 ft | 274 kts | 60° |
| 2026-05-05 17:42 | 55.08829 | -1.51641 | 8418 ft | 281 kts | 62° |
| 2026-05-05 17:42 | 55.09646 | -1.48493 | 9691 ft | 292 kts | 63° |
| 2026-05-05 17:42 | 55.10482 | -1.45168 | 10823 ft | 306 kts | 64° |
| 2026-05-05 17:42 | 55.11368 | -1.41658 | 11502 ft | 333 kts | 64° |
| 2026-05-05 17:43 | 55.12350 | -1.37796 | 12196 ft | 356 kts | 64° |
| 2026-05-05 17:43 | 55.13376 | -1.33779 | 13283 ft | 364 kts | 64° |
| 2026-05-05 17:43 | 55.14412 | -1.29726 | 14345 ft | 372 kts | 64° |
| 2026-05-05 17:43 | 55.15475 | -1.25566 | 15205 ft | 377 kts | 64° |
| 2026-05-05 17:44 | 55.16553 | -1.21344 | 15777 ft | 382 kts | 64° |
| 2026-05-05 17:44 | 55.17638 | -1.17085 | 16435 ft | 388 kts | 64° |
| 2026-05-05 17:44 | 55.18744 | -1.12737 | 17600 ft | 390 kts | 64° |
| 2026-05-05 17:44 | 55.19865 | -1.08325 | 18219 ft | 409 kts | 64° |
| 2026-05-05 17:45 | 55.21039 | -1.03696 | 18482 ft | 432 kts | 65° |
| 2026-05-05 17:45 | 55.22302 | -0.98697 | 18749 ft | 452 kts | 65° |
| 2026-05-05 17:45 | 55.23573 | -0.93649 | 19222 ft | 464 kts | 65° |
| 2026-05-05 17:45 | 55.24901 | -0.88361 | 19524 ft | 479 kts | 65° |
| 2026-05-05 17:46 | 55.26251 | -0.82967 | 20159 ft | 484 kts | 65° |
| 2026-05-05 17:46 | 55.27606 | -0.77544 | 20813 ft | 488 kts | 65° |
| 2026-05-05 17:46 | 55.28969 | -0.72076 | 21436 ft | 493 kts | 65° |
| 2026-05-05 17:46 | 55.30359 | -0.66491 | 22048 ft | 497 kts | 65° |
| 2026-05-05 17:47 | 55.31749 | -0.60889 | 22634 ft | 502 kts | 65° |
| 2026-05-05 17:47 | 55.33128 | -0.55316 | 23200 ft | 506 kts | 66° |
| 2026-05-05 17:47 | 55.34554 | -0.49538 | 23726 ft | 511 kts | 66° |
| 2026-05-05 17:47 | 55.35951 | -0.43864 | 24114 ft | 514 kts | 66° |
| 2026-05-05 17:48 | 55.37373 | -0.38070 | 24456 ft | 517 kts | 66° |
| 2026-05-05 17:48 | 55.38802 | -0.32233 | 24742 ft | 519 kts | 66° |
| 2026-05-05 17:48 | 55.40230 | -0.26390 | 25053 ft | 520 kts | 66° |
| 2026-05-05 17:48 | 55.41658 | -0.20527 | 25380 ft | 520 kts | 66° |
| 2026-05-05 17:49 | 55.43084 | -0.14655 | 25726 ft | 520 kts | 66° |
| 2026-05-05 17:49 | 55.44486 | -0.08870 | 26050 ft | 521 kts | 66° |
| 2026-05-05 17:49 | 55.45906 | -0.02994 | 26418 ft | 520 kts | 66° |
| 2026-05-05 17:49 | 55.47322 | 0.02886 | 26761 ft | 520 kts | 66° |
| 2026-05-05 17:50 | 55.48734 | 0.08761 | 27139 ft | 520 kts | 66° |
| 2026-05-05 17:50 | 55.50141 | 0.14632 | 27513 ft | 520 kts | 67° |
| 2026-05-05 17:50 | 55.51544 | 0.20504 | 27866 ft | 519 kts | 67° |
| 2026-05-05 17:50 | 55.52946 | 0.26383 | 28235 ft | 519 kts | 67° |
| 2026-05-05 17:51 | 55.54345 | 0.32270 | 28588 ft | 519 kts | 67° |
| 2026-05-05 17:51 | 55.55738 | 0.38148 | 28946 ft | 519 kts | 67° |
| 2026-05-05 17:51 | 55.58007 | 0.47752 | 29754 ft | 513 kts | 67° |
| 2026-05-05 17:51 | 55.60639 | 0.58953 | 31789 ft | 493 kts | 67° |
| 2026-05-05 17:52 | 55.63255 | 0.70142 | 33086 ft | 491 kts | 67° |
| 2026-05-05 17:52 | 55.65857 | 0.81327 | 34332 ft | 489 kts | 67° |
| 2026-05-05 17:52 | 55.68429 | 0.92446 | 35401 ft | 486 kts | 67° |
| 2026-05-05 17:52 | 55.70981 | 1.03531 | 36437 ft | 484 kts | 67° |
| 2026-05-05 17:53 | 55.73510 | 1.14571 | 37415 ft | 482 kts | 68° |
| 2026-05-05 17:53 | 55.76016 | 1.25575 | 38392 ft | 480 kts | 68° |
| 2026-05-05 17:53 | 55.78513 | 1.36590 | 38984 ft | 478 kts | 68° |
| 2026-05-05 17:54 | 55.83418 | 1.58405 | 39032 ft | 477 kts | 68° |
| 2026-05-05 17:54 | 55.88316 | 1.80415 | 39029 ft | 478 kts | 68° |
| 2026-05-05 17:55 | 55.93178 | 2.02494 | 39028 ft | 478 kts | 68° |
| 2026-05-05 17:55 | 55.98011 | 2.24682 | 39024 ft | 479 kts | 68° |
| 2026-05-05 17:56 | 56.02799 | 2.46896 | 39018 ft | 479 kts | 69° |
| 2026-05-05 17:56 | 56.07555 | 2.69210 | 39022 ft | 480 kts | 69° |
| 2026-05-05 17:57 | 56.12244 | 2.91449 | 39013 ft | 480 kts | 69° |
| 2026-05-05 17:57 | 56.16932 | 3.13928 | 39000 ft | 481 kts | 69° |
| 2026-05-05 17:58 | 56.21577 | 3.36454 | 38978 ft | 482 kts | 69° |
| 2026-05-05 17:58 | 56.26199 | 3.59124 | 38969 ft | 482 kts | 70° |
| 2026-05-05 17:59 | 56.30758 | 3.81740 | 39004 ft | 483 kts | 70° |
| 2026-05-05 17:59 | 56.35317 | 4.04616 | 39016 ft | 484 kts | 70° |
| 2026-05-05 18:00 | 56.39786 | 4.27304 | 38819 ft | 484 kts | 70° |
| 2026-05-05 18:00 | 56.42028 | 4.38787 | 38582 ft | 484 kts | 70° |
| 2026-05-05 18:00 | 56.43260 | 4.45126 | 38427 ft | 485 kts | 70° |
| 2026-05-05 18:01 | 56.45218 | 4.55242 | 38062 ft | 486 kts | 70° |
| 2026-05-05 18:01 | 56.47443 | 4.66802 | 37540 ft | 486 kts | 70° |
| 2026-05-05 18:01 | 56.49660 | 4.78376 | 37153 ft | 488 kts | 70° |
| 2026-05-05 18:01 | 56.51882 | 4.90012 | 36795 ft | 489 kts | 70° |
| 2026-05-05 18:02 | 56.54991 | 5.09452 | 36190 ft | 490 kts | 77° |
| 2026-05-05 18:02 | 56.56607 | 5.21552 | 35832 ft | 491 kts | 76° |
| 2026-05-05 18:02 | 56.58237 | 5.33583 | 35482 ft | 492 kts | 76° |
| 2026-05-05 18:02 | 56.59840 | 5.45668 | 35139 ft | 492 kts | 77° |
| 2026-05-05 18:03 | 56.61413 | 5.57708 | 34871 ft | 493 kts | 77° |
| 2026-05-05 18:03 | 56.62982 | 5.69831 | 34630 ft | 493 kts | 77° |
| 2026-05-05 18:03 | 56.63968 | 5.77491 | 34478 ft | 494 kts | 77° |
| 2026-05-05 18:03 | 56.64741 | 5.83523 | 34368 ft | 494 kts | 77° |
| 2026-05-05 18:04 | 56.65533 | 5.89730 | 34237 ft | 495 kts | 77° |
| 2026-05-05 18:04 | 56.66844 | 6.00066 | 34045 ft | 495 kts | 77° |
| 2026-05-05 18:04 | 56.68368 | 6.12178 | 33769 ft | 496 kts | 77° |
| 2026-05-05 18:04 | 56.69896 | 6.24444 | 33490 ft | 496 kts | 77° |
| 2026-05-05 18:05 | 56.71185 | 6.34849 | 33268 ft | 497 kts | 77° |
| 2026-05-05 18:05 | 56.71942 | 6.40989 | 33112 ft | 497 kts | 77° |
| 2026-05-05 18:05 | 56.72698 | 6.47154 | 32781 ft | 498 kts | 77° |
| 2026-05-05 18:05 | 56.73439 | 6.53235 | 32414 ft | 498 kts | 77° |
| 2026-05-05 18:06 | 56.74184 | 6.59373 | 32049 ft | 498 kts | 77° |
| 2026-05-05 18:06 | 56.74436 | 6.61450 | 31919 ft | 498 kts | 77° |
| 2026-05-05 18:06 | 56.75675 | 6.71738 | 31326 ft | 499 kts | 77° |
| 2026-05-05 18:06 | 56.76417 | 6.77929 | 30972 ft | 500 kts | 77° |
| 2026-05-05 18:07 | 56.77156 | 6.84130 | 30619 ft | 500 kts | 77° |
| 2026-05-05 18:07 | 56.77884 | 6.90261 | 30280 ft | 497 kts | 78° |
| 2026-05-05 18:07 | 56.78616 | 6.96459 | 29915 ft | 495 kts | 78° |
| 2026-05-05 18:07 | 56.79348 | 7.02689 | 29509 ft | 506 kts | 78° |
| 2026-05-05 18:08 | 56.80068 | 7.08838 | 29116 ft | 504 kts | 78° |
| 2026-05-05 18:08 | 56.80800 | 7.15121 | 28707 ft | 500 kts | 78° |
| 2026-05-05 18:08 | 56.81515 | 7.21281 | 28270 ft | 497 kts | 78° |
| 2026-05-05 18:08 | 56.82230 | 7.27478 | 27836 ft | 494 kts | 78° |
| 2026-05-05 18:09 | 56.82946 | 7.33707 | 27413 ft | 513 kts | 78° |
| 2026-05-05 18:09 | 56.83683 | 7.40150 | 26933 ft | 517 kts | 78° |
| 2026-05-05 18:09 | 56.84410 | 7.46542 | 26381 ft | 511 kts | 78° |
| 2026-05-05 18:09 | 56.85127 | 7.52877 | 25756 ft | 507 kts | 78° |
| 2026-05-05 18:10 | 56.85725 | 7.58180 | 25279 ft | 503 kts | 78° |
| 2026-05-05 18:10 | 56.86429 | 7.64454 | 24752 ft | 511 kts | 78° |
| 2026-05-05 18:10 | 56.87149 | 7.70901 | 24219 ft | 518 kts | 78° |
| 2026-05-05 18:10 | 56.87865 | 7.77338 | 23700 ft | 513 kts | 78° |
| 2026-05-05 18:11 | 56.88569 | 7.83706 | 23139 ft | 510 kts | 78° |
| 2026-05-05 18:11 | 56.89257 | 7.89968 | 22722 ft | 507 kts | 78° |
| 2026-05-05 18:11 | 56.89940 | 7.96202 | 22320 ft | 504 kts | 78° |
| 2026-05-05 18:11 | 56.90631 | 8.02550 | 21910 ft | 501 kts | 78° |
| 2026-05-05 18:12 | 56.91309 | 8.08799 | 21510 ft | 498 kts | 78° |
| 2026-05-05 18:12 | 56.91978 | 8.15003 | 21121 ft | 496 kts | 78° |
| 2026-05-05 18:12 | 56.92640 | 8.21177 | 20763 ft | 493 kts | 78° |
| 2026-05-05 18:12 | 56.93292 | 8.27279 | 20574 ft | 492 kts | 78° |
| 2026-05-05 18:13 | 56.93949 | 8.33460 | 20395 ft | 491 kts | 78° |
| 2026-05-05 18:13 | 56.94381 | 8.37543 | 20281 ft | 490 kts | 78° |
| 2026-05-05 18:13 | 56.95027 | 8.43679 | 20139 ft | 489 kts | 78° |
| 2026-05-05 18:13 | 56.95886 | 8.51876 | 19960 ft | 489 kts | 78° |
| 2026-05-05 18:14 | 56.96308 | 8.55918 | 19888 ft | 488 kts | 79° |
| 2026-05-05 18:14 | 56.96943 | 8.62038 | 19759 ft | 487 kts | 79° |
| 2026-05-05 18:14 | 56.97769 | 8.70040 | 19592 ft | 486 kts | 79° |
| 2026-05-05 18:14 | 56.98201 | 8.74243 | 19513 ft | 486 kts | 79° |
| 2026-05-05 18:15 | 56.98817 | 8.80273 | 19394 ft | 485 kts | 79° |
| 2026-05-05 18:15 | 56.99427 | 8.86268 | 19275 ft | 484 kts | 79° |
| 2026-05-05 18:15 | 57.00055 | 8.92469 | 19132 ft | 483 kts | 79° |
| 2026-05-05 18:15 | 57.00654 | 8.98422 | 18935 ft | 472 kts | 79° |
| 2026-05-05 18:16 | 57.01233 | 9.04208 | 18738 ft | 449 kts | 79° |
| 2026-05-05 18:16 | 57.01782 | 9.09721 | 18548 ft | 428 kts | 79° |
| 2026-05-05 18:16 | 57.02308 | 9.15023 | 18358 ft | 420 kts | 79° |
| 2026-05-05 18:16 | 57.02832 | 9.20319 | 18078 ft | 423 kts | 79° |
| 2026-05-05 18:17 | 57.03354 | 9.25622 | 17746 ft | 419 kts | 79° |
| 2026-05-05 18:17 | 57.03866 | 9.30855 | 17415 ft | 416 kts | 79° |
| 2026-05-05 18:17 | 57.04373 | 9.36059 | 17093 ft | 410 kts | 79° |
| 2026-05-05 18:17 | 57.04866 | 9.41144 | 16774 ft | 397 kts | 79° |
| 2026-05-05 18:18 | 57.05334 | 9.45991 | 16460 ft | 385 kts | 79° |
| 2026-05-05 18:18 | 57.05791 | 9.50742 | 16140 ft | 368 kts | 79° |
| 2026-05-05 18:18 | 57.06224 | 9.55271 | 15832 ft | 351 kts | 79° |
| 2026-05-05 18:18 | 57.06635 | 9.59582 | 15529 ft | 335 kts | 79° |
| 2026-05-05 18:19 | 57.07029 | 9.63730 | 15221 ft | 322 kts | 79° |
| 2026-05-05 18:19 | 57.07405 | 9.67708 | 14916 ft | 310 kts | 79° |
| 2026-05-05 18:19 | 57.07769 | 9.71560 | 14615 ft | 299 kts | 79° |
| 2026-05-05 18:19 | 57.08118 | 9.75273 | 14317 ft | 289 kts | 79° |
| 2026-05-05 18:20 | 57.08451 | 9.78814 | 14034 ft | 280 kts | 79° |
| 2026-05-05 18:20 | 57.08778 | 9.82304 | 13736 ft | 272 kts | 79° |
| 2026-05-05 18:20 | 57.09107 | 9.85804 | 13418 ft | 283 kts | 79° |
| 2026-05-05 18:20 | 57.09440 | 9.89359 | 13021 ft | 280 kts | 79° |
| 2026-05-05 18:21 | 57.09766 | 9.92860 | 12620 ft | 275 kts | 79° |
| 2026-05-05 18:21 | 57.10085 | 9.96302 | 12221 ft | 270 kts | 79° |
| 2026-05-05 18:21 | 57.10426 | 9.99658 | 12001 ft | 268 kts | 72° |
| 2026-05-05 18:21 | 57.11112 | 10.02848 | 11966 ft | 267 kts | 63° |
| 2026-05-05 18:22 | 57.11870 | 10.05969 | 11968 ft | 267 kts | 63° |
| 2026-05-05 18:22 | 57.12635 | 10.09110 | 11962 ft | 268 kts | 63° |
| 2026-05-05 18:22 | 57.13389 | 10.12237 | 11966 ft | 267 kts | 63° |
| 2026-05-05 18:22 | 57.14142 | 10.15387 | 11823 ft | 268 kts | 63° |
| 2026-05-05 18:23 | 57.14882 | 10.18504 | 11580 ft | 266 kts | 63° |
| 2026-05-05 18:23 | 57.15620 | 10.21625 | 11311 ft | 263 kts | 63° |
| 2026-05-05 18:23 | 57.16344 | 10.24697 | 11054 ft | 260 kts | 63° |
| 2026-05-05 18:23 | 57.17061 | 10.27736 | 10811 ft | 258 kts | 63° |
| 2026-05-05 18:24 | 57.17818 | 10.30700 | 10557 ft | 255 kts | 57° |
| 2026-05-05 18:24 | 57.18737 | 10.33498 | 10331 ft | 251 kts | 54° |
| 2026-05-05 18:24 | 57.19652 | 10.36227 | 10254 ft | 253 kts | 54° |
| 2026-05-05 18:24 | 57.20577 | 10.38980 | 10177 ft | 250 kts | 54° |
| 2026-05-05 18:25 | 57.21480 | 10.41675 | 10043 ft | 250 kts | 54° |
| 2026-05-05 18:25 | 57.22096 | 10.43510 | 9992 ft | 249 kts | 54° |
| 2026-05-05 18:25 | 57.23297 | 10.47100 | 9964 ft | 248 kts | 54° |
| 2026-05-05 18:25 | 57.24208 | 10.49826 | 9965 ft | 249 kts | 54° |
| 2026-05-05 18:26 | 57.25117 | 10.52547 | 9958 ft | 249 kts | 54° |
| 2026-05-05 18:26 | 57.26074 | 10.55392 | 9972 ft | 285 kts | 54° |
| 2026-05-05 18:26 | 57.27178 | 10.58628 | 9965 ft | 302 kts | 54° |
| 2026-05-05 18:26 | 57.28313 | 10.61947 | 9975 ft | 315 kts | 54° |
| 2026-05-05 18:27 | 57.29570 | 10.65584 | 9952 ft | 346 kts | 54° |
| 2026-05-05 18:27 | 57.30878 | 10.69351 | 9958 ft | 348 kts | 54° |
| 2026-05-05 18:27 | 57.32195 | 10.73146 | 9959 ft | 349 kts | 54° |
| 2026-05-05 18:27 | 57.33493 | 10.76878 | 9955 ft | 349 kts | 54° |
| 2026-05-05 18:28 | 57.36119 | 10.84450 | 9957 ft | 345 kts | 54° |
| 2026-05-05 18:28 | 57.37372 | 10.88081 | 9950 ft | 325 kts | 54° |
| 2026-05-05 18:28 | 57.38547 | 10.91505 | 9956 ft | 304 kts | 54° |
| 2026-05-05 18:29 | 57.39648 | 10.94741 | 9952 ft | 296 kts | 54° |
| 2026-05-05 18:29 | 57.40786 | 10.98072 | 9950 ft | 307 kts | 54° |
| 2026-05-05 18:29 | 57.41927 | 11.01407 | 9962 ft | 316 kts | 54° |
| 2026-05-05 18:29 | 57.43156 | 11.04977 | 9957 ft | 332 kts | 54° |
| 2026-05-05 18:30 | 57.44386 | 11.08548 | 9951 ft | 333 kts | 54° |
| 2026-05-05 18:30 | 57.45636 | 11.12172 | 9959 ft | 333 kts | 55° |
| 2026-05-05 18:30 | 57.46898 | 11.15740 | 9956 ft | 333 kts | 53° |
| 2026-05-05 18:30 | 57.48225 | 11.19320 | 9960 ft | 333 kts | 52° |
| 2026-05-05 18:31 | 57.49538 | 11.22854 | 9958 ft | 333 kts | 52° |
| 2026-05-05 18:31 | 57.50848 | 11.26426 | 9953 ft | 333 kts | 53° |
| 2026-05-05 18:31 | 57.52145 | 11.30002 | 9958 ft | 334 kts | 53° |
| 2026-05-05 18:31 | 57.53437 | 11.33594 | 9951 ft | 334 kts | 53° |
| 2026-05-05 18:32 | 57.54692 | 11.37099 | 9949 ft | 327 kts | 53° |
| 2026-05-05 18:32 | 57.55928 | 11.40565 | 9957 ft | 315 kts | 53° |
| 2026-05-05 18:32 | 57.57156 | 11.44004 | 9843 ft | 319 kts | 53° |
| 2026-05-05 18:32 | 57.58358 | 11.47375 | 9604 ft | 314 kts | 53° |
| 2026-05-05 18:33 | 57.59580 | 11.50804 | 9389 ft | 314 kts | 53° |
| 2026-05-05 18:33 | 57.60783 | 11.54185 | 9176 ft | 312 kts | 54° |
| 2026-05-05 18:33 | 57.61980 | 11.57556 | 8939 ft | 310 kts | 54° |
| 2026-05-05 18:33 | 57.63165 | 11.60897 | 8688 ft | 306 kts | 54° |
| 2026-05-05 18:34 | 57.64301 | 11.64108 | 8433 ft | 298 kts | 54° |
| 2026-05-05 18:34 | 57.65451 | 11.67364 | 8165 ft | 293 kts | 54° |
| 2026-05-05 18:34 | 57.66579 | 11.70556 | 7902 ft | 292 kts | 54° |
| 2026-05-05 18:34 | 57.67678 | 11.73670 | 7649 ft | 291 kts | 54° |
| 2026-05-05 18:35 | 57.68787 | 11.76820 | 7392 ft | 288 kts | 54° |
| 2026-05-05 18:35 | 57.69885 | 11.79940 | 7138 ft | 285 kts | 54° |
| 2026-05-05 18:35 | 57.70958 | 11.82997 | 6885 ft | 277 kts | 54° |
| 2026-05-05 18:35 | 57.71999 | 11.85966 | 6637 ft | 270 kts | 54° |
| 2026-05-05 18:36 | 57.73015 | 11.88867 | 6383 ft | 263 kts | 54° |
| 2026-05-05 18:36 | 57.74005 | 11.91696 | 6114 ft | 257 kts | 54° |
| 2026-05-05 18:36 | 57.74974 | 11.94465 | 5847 ft | 251 kts | 54° |
| 2026-05-05 18:36 | 57.75923 | 11.97182 | 5584 ft | 247 kts | 54° |
| 2026-05-05 18:37 | 57.76860 | 11.99866 | 5307 ft | 247 kts | 55° |
| 2026-05-05 18:37 | 57.77794 | 12.02544 | 5071 ft | 244 kts | 56° |
| 2026-05-05 18:37 | 57.78695 | 12.05219 | 4806 ft | 240 kts | 55° |
| 2026-05-05 18:37 | 57.79604 | 12.07778 | 4538 ft | 232 kts | 54° |
| 2026-05-05 18:38 | 57.80480 | 12.10229 | 4313 ft | 223 kts | 54° |
| 2026-05-05 18:38 | 57.81317 | 12.12599 | 4126 ft | 215 kts | 54° |
| 2026-05-05 18:38 | 57.82129 | 12.14932 | 3940 ft | 209 kts | 54° |
| 2026-05-05 18:38 | 57.82919 | 12.17217 | 3734 ft | 210 kts | 55° |
| 2026-05-05 18:39 | 57.83707 | 12.19509 | 3557 ft | 210 kts | 55° |
| 2026-05-05 18:39 | 57.84493 | 12.21803 | 3345 ft | 208 kts | 55° |
| 2026-05-05 18:39 | 57.85276 | 12.24090 | 3178 ft | 206 kts | 55° |
| 2026-05-05 18:39 | 57.86022 | 12.26322 | 2972 ft | 197 kts | 62° |
| 2026-05-05 18:40 | 57.86239 | 12.28764 | 2823 ft | 188 kts | 99° |
| 2026-05-05 18:40 | 57.85678 | 12.30853 | 2722 ft | 177 kts | 129° |
| 2026-05-05 18:40 | 57.84925 | 12.32562 | 2671 ft | 163 kts | 129° |
| 2026-05-05 18:40 | 57.84231 | 12.34175 | 2547 ft | 154 kts | 128° |
| 2026-05-05 18:41 | 57.83591 | 12.35677 | 2496 ft | 143 kts | 128° |
| 2026-05-05 18:41 | 57.82983 | 12.37106 | 2516 ft | 144 kts | 128° |
| 2026-05-05 18:41 | 57.82362 | 12.38562 | 2495 ft | 140 kts | 128° |
| 2026-05-05 18:41 | 57.81696 | 12.39916 | 2495 ft | 142 kts | 147° |
| 2026-05-05 18:42 | 57.80768 | 12.40455 | 2508 ft | 142 kts | 181° |
| 2026-05-05 18:42 | 57.79819 | 12.40171 | 2493 ft | 137 kts | 201° |
| 2026-05-05 18:42 | 57.78920 | 12.39501 | 2496 ft | 138 kts | 207° |
| 2026-05-05 18:42 | 57.78061 | 12.38740 | 2504 ft | 136 kts | 209° |
| 2026-05-05 18:43 | 57.77217 | 12.37969 | 2504 ft | 137 kts | 209° |
| 2026-05-05 18:43 | 57.76361 | 12.37186 | 2495 ft | 137 kts | 209° |
| 2026-05-05 18:43 | 57.75502 | 12.36399 | 2322 ft | 136 kts | 208° |
| 2026-05-05 18:43 | 57.74651 | 12.35622 | 2144 ft | 136 kts | 209° |
| 2026-05-05 18:44 | 57.73802 | 12.34843 | 1956 ft | 135 kts | 209° |
| 2026-05-05 18:44 | 57.72959 | 12.34073 | 1780 ft | 135 kts | 209° |
| 2026-05-05 18:44 | 57.72125 | 12.33310 | 1580 ft | 134 kts | 209° |
| 2026-05-05 18:44 | 57.71294 | 12.32553 | 1396 ft | 128 kts | 209° |
| 2026-05-05 18:45 | 57.70526 | 12.31850 | 1207 ft | 125 kts | 210° |
| 2026-05-05 18:45 | 57.69748 | 12.31143 | 1024 ft | 122 kts | 209° |
| 2026-05-05 18:45 | 57.68997 | 12.30456 | 854 ft | 121 kts | 209° |
| 2026-05-05 18:45 | 57.68234 | 12.29762 | 691 ft | 122 kts | 209° |
| 2026-05-05 18:46 | 57.67474 | 12.29061 | 534 ft | 123 kts | 208° |
| 2026-05-05 18:46 | 57.66800 | 12.28435 | 506 ft | 84 kts | 206° |
| 2026-05-05 18:46 | 57.66382 | 12.28056 | 502 ft | 62 kts | 205° |
| 2026-05-05 18:46 | 57.66138 | 12.27987 | 499 ft | 27 kts | 134° |
| 2026-05-05 18:47 | 57.66111 | 12.28080 | 499 ft | 0 kts | 114° |
| 2026-05-05 18:47 | 57.66106 | 12.28098 | 500 ft | 8 kts | 114° |
| 2026-05-05 18:48 | 57.66116 | 12.28232 | 500 ft | 12 kts | 37° |
| 2026-05-05 18:48 | 57.66222 | 12.28269 | 501 ft | 21 kts | 27° |
| 2026-05-05 18:48 | 57.66379 | 12.28410 | 503 ft | 29 kts | 25° |
| 2026-05-05 18:48 | 57.66573 | 12.28589 | 505 ft | 32 kts | 25° |
| 2026-05-05 18:49 | 57.66783 | 12.28781 | 507 ft | 35 kts | 26° |
| 2026-05-05 18:49 | 57.67003 | 12.28983 | 510 ft | 36 kts | 25° |
| 2026-05-05 18:49 | 57.67214 | 12.29171 | 512 ft | 22 kts | 24° |
| 2026-05-05 18:49 | 57.67257 | 12.29310 | 512 ft | 13 kts | 101° |
| 2026-05-05 18:50 | 57.67212 | 12.29483 | 512 ft | 7 kts | 117° |
| 2026-05-05 18:50 | 57.67201 | 12.29518 | 512 ft | 7 kts | 133° |
| 2026-05-05 18:50 | 57.67135 | 12.29472 | 512 ft | 16 kts | 245° |
| 2026-05-05 18:50 | 57.67116 | 12.29377 | 511 ft | 0 kts | 251° |